sensor_id;sensor_type;location;lat;lon;timestamp;P1;durP1;ratioP1;P2;durP2;ratioP2
33266;SDS011;19638;49.080;11.896;2023-05-09T00:04:00;11.57;;;7.93;;
33266;SDS011;19638;49.080;11.896;2023-05-09T00:08:04;10.48;;;7.97;;
33266;SDS011;19638;49.080;11.896;2023-05-09T00:12:10;14.18;;;8.75;;
33266;SDS011;19638;49.080;11.896;2023-05-09T00:16:15;11.30;;;7.85;;
33266;SDS011;19638;49.080;11.896;2023-05-09T00:20:22;13.05;;;8.30;;
33266;SDS011;19638;49.080;11.896;2023-05-09T00:24:28;12.70;;;8.38;;
33266;SDS011;19638;49.080;11.896;2023-05-09T00:28:32;12.10;;;9.07;;
33266;SDS011;19638;49.080;11.896;2023-05-09T00:32:35;14.90;;;9.73;;
33266;SDS011;19638;49.080;11.896;2023-05-09T00:36:39;13.23;;;9.32;;
33266;SDS011;19638;49.080;11.896;2023-05-09T00:40:45;14.63;;;9.70;;
33266;SDS011;19638;49.080;11.896;2023-05-09T00:44:51;17.67;;;9.93;;
33266;SDS011;19638;49.080;11.896;2023-05-09T00:48:54;17.60;;;10.77;;
33266;SDS011;19638;49.080;11.896;2023-05-09T00:53:00;17.83;;;10.13;;
33266;SDS011;19638;49.080;11.896;2023-05-09T00:57:04;17.73;;;11.20;;
33266;SDS011;19638;49.080;11.896;2023-05-09T01:01:11;23.13;;;11.07;;
33266;SDS011;19638;49.080;11.896;2023-05-09T01:05:18;18.70;;;10.93;;
33266;SDS011;19638;49.080;11.896;2023-05-09T01:09:28;15.23;;;11.20;;
33266;SDS011;19638;49.080;11.896;2023-05-09T01:13:43;17.23;;;11.20;;
33266;SDS011;19638;49.080;11.896;2023-05-09T01:17:52;18.10;;;10.55;;
33266;SDS011;19638;49.080;11.896;2023-05-09T01:22:00;16.48;;;11.05;;
33266;SDS011;19638;49.080;11.896;2023-05-09T01:26:09;17.50;;;11.23;;
33266;SDS011;19638;49.080;11.896;2023-05-09T01:30:22;18.17;;;11.27;;
33266;SDS011;19638;49.080;11.896;2023-05-09T01:34:28;16.35;;;11.25;;
33266;SDS011;19638;49.080;11.896;2023-05-09T01:38:39;16.35;;;11.23;;
33266;SDS011;19638;49.080;11.896;2023-05-09T01:43:02;20.73;;;11.30;;
33266;SDS011;19638;49.080;11.896;2023-05-09T01:47:13;18.73;;;11.68;;
33266;SDS011;19638;49.080;11.896;2023-05-09T01:51:20;16.70;;;10.70;;
33266;SDS011;19638;49.080;11.896;2023-05-09T01:55:25;18.65;;;11.93;;
33266;SDS011;19638;49.080;11.896;2023-05-09T01:59:37;17.65;;;11.48;;
33266;SDS011;19638;49.080;11.896;2023-05-09T02:03:47;17.30;;;11.57;;
33266;SDS011;19638;49.080;11.896;2023-05-09T02:07:53;18.48;;;11.45;;
33266;SDS011;19638;49.080;11.896;2023-05-09T02:11:59;17.83;;;12.07;;
33266;SDS011;19638;49.080;11.896;2023-05-09T02:16:05;22.52;;;13.45;;
33266;SDS011;19638;49.080;11.896;2023-05-09T02:20:11;20.23;;;12.15;;
33266;SDS011;19638;49.080;11.896;2023-05-09T02:24:16;18.80;;;12.25;;
33266;SDS011;19638;49.080;11.896;2023-05-09T02:28:32;22.65;;;13.45;;
33266;SDS011;19638;49.080;11.896;2023-05-09T02:32:37;21.25;;;13.32;;
33266;SDS011;19638;49.080;11.896;2023-05-09T02:36:43;20.63;;;13.50;;
33266;SDS011;19638;49.080;11.896;2023-05-09T02:40:50;24.58;;;14.50;;
33266;SDS011;19638;49.080;11.896;2023-05-09T02:44:54;22.20;;;13.18;;
33266;SDS011;19638;49.080;11.896;2023-05-09T02:48:58;21.80;;;13.70;;
33266;SDS011;19638;49.080;11.896;2023-05-09T02:53:02;24.27;;;13.68;;
33266;SDS011;19638;49.080;11.896;2023-05-09T02:57:07;23.85;;;14.20;;
33266;SDS011;19638;49.080;11.896;2023-05-09T03:01:11;22.42;;;13.90;;
33266;SDS011;19638;49.080;11.896;2023-05-09T03:05:14;25.48;;;14.32;;
33266;SDS011;19638;49.080;11.896;2023-05-09T03:09:21;24.23;;;13.68;;
33266;SDS011;19638;49.080;11.896;2023-05-09T03:13:26;22.98;;;14.15;;
33266;SDS011;19638;49.080;11.896;2023-05-09T03:17:29;24.52;;;13.95;;
33266;SDS011;19638;49.080;11.896;2023-05-09T03:21:34;21.10;;;13.02;;
33266;SDS011;19638;49.080;11.896;2023-05-09T03:25:41;26.40;;;14.48;;
33266;SDS011;19638;49.080;11.896;2023-05-09T03:29:46;26.02;;;13.73;;
33266;SDS011;19638;49.080;11.896;2023-05-09T03:33:51;21.08;;;13.50;;
33266;SDS011;19638;49.080;11.896;2023-05-09T03:37:55;23.13;;;14.75;;
33266;SDS011;19638;49.080;11.896;2023-05-09T03:42:00;26.73;;;15.65;;
33266;SDS011;19638;49.080;11.896;2023-05-09T03:46:03;26.25;;;15.07;;
33266;SDS011;19638;49.080;11.896;2023-05-09T03:50:07;26.75;;;15.18;;
33266;SDS011;19638;49.080;11.896;2023-05-09T03:54:13;26.17;;;15.32;;
33266;SDS011;19638;49.080;11.896;2023-05-09T03:58:17;27.48;;;15.93;;
33266;SDS011;19638;49.080;11.896;2023-05-09T04:02:21;25.92;;;15.82;;
33266;SDS011;19638;49.080;11.896;2023-05-09T04:06:25;26.85;;;16.60;;
33266;SDS011;19638;49.080;11.896;2023-05-09T04:10:30;25.00;;;15.75;;
33266;SDS011;19638;49.080;11.896;2023-05-09T04:14:41;27.52;;;15.85;;
33266;SDS011;19638;49.080;11.896;2023-05-09T04:18:50;27.67;;;16.10;;
33266;SDS011;19638;49.080;11.896;2023-05-09T04:23:00;27.25;;;15.88;;
33266;SDS011;19638;49.080;11.896;2023-05-09T04:27:06;26.00;;;16.38;;
33266;SDS011;19638;49.080;11.896;2023-05-09T04:31:13;31.30;;;16.33;;
33266;SDS011;19638;49.080;11.896;2023-05-09T04:35:21;24.77;;;15.85;;
33266;SDS011;19638;49.080;11.896;2023-05-09T04:39:24;28.83;;;16.08;;
33266;SDS011;19638;49.080;11.896;2023-05-09T04:43:27;27.73;;;16.35;;
33266;SDS011;19638;49.080;11.896;2023-05-09T04:47:32;27.88;;;14.95;;
33266;SDS011;19638;49.080;11.896;2023-05-09T04:51:38;34.83;;;15.32;;
33266;SDS011;19638;49.080;11.896;2023-05-09T04:55:41;22.17;;;14.90;;
33266;SDS011;19638;49.080;11.896;2023-05-09T04:59:47;24.88;;;14.77;;
33266;SDS011;19638;49.080;11.896;2023-05-09T05:03:54;21.25;;;14.10;;
33266;SDS011;19638;49.080;11.896;2023-05-09T05:07:59;27.50;;;14.57;;
33266;SDS011;19638;49.080;11.896;2023-05-09T05:12:02;22.85;;;14.73;;
33266;SDS011;19638;49.080;11.896;2023-05-09T05:16:10;21.55;;;13.43;;
33266;SDS011;19638;49.080;11.896;2023-05-09T05:20:14;24.88;;;14.32;;
33266;SDS011;19638;49.080;11.896;2023-05-09T05:24:17;21.40;;;13.23;;
33266;SDS011;19638;49.080;11.896;2023-05-09T05:28:20;23.15;;;14.20;;
33266;SDS011;19638;49.080;11.896;2023-05-09T05:32:23;19.17;;;13.25;;
33266;SDS011;19638;49.080;11.896;2023-05-09T05:36:28;20.00;;;13.07;;
33266;SDS011;19638;49.080;11.896;2023-05-09T05:40:32;20.15;;;12.95;;
33266;SDS011;19638;49.080;11.896;2023-05-09T05:44:35;17.60;;;13.00;;
33266;SDS011;19638;49.080;11.896;2023-05-09T05:48:44;17.27;;;12.50;;
33266;SDS011;19638;49.080;11.896;2023-05-09T05:52:51;16.33;;;12.32;;
33266;SDS011;19638;49.080;11.896;2023-05-09T05:56:54;20.05;;;13.40;;
33266;SDS011;19638;49.080;11.896;2023-05-09T06:00:57;18.92;;;11.27;;
33266;SDS011;19638;49.080;11.896;2023-05-09T06:05:01;18.17;;;12.00;;
33266;SDS011;19638;49.080;11.896;2023-05-09T06:09:06;17.80;;;12.48;;
33266;SDS011;19638;49.080;11.896;2023-05-09T06:13:09;18.95;;;12.35;;
33266;SDS011;19638;49.080;11.896;2023-05-09T06:17:12;17.17;;;11.70;;
33266;SDS011;19638;49.080;11.896;2023-05-09T06:21:16;14.98;;;12.18;;
33266;SDS011;19638;49.080;11.896;2023-05-09T06:25:23;15.45;;;11.65;;
33266;SDS011;19638;49.080;11.896;2023-05-09T06:29:28;12.35;;;9.65;;
33266;SDS011;19638;49.080;11.896;2023-05-09T06:33:32;12.13;;;7.20;;
33266;SDS011;19638;49.080;11.896;2023-05-09T06:37:35;10.45;;;7.20;;
33266;SDS011;19638;49.080;11.896;2023-05-09T06:41:50;11.18;;;7.30;;
33266;SDS011;19638;49.080;11.896;2023-05-09T06:45:53;10.52;;;6.50;;
33266;SDS011;19638;49.080;11.896;2023-05-09T06:49:56;11.40;;;6.93;;
33266;SDS011;19638;49.080;11.896;2023-05-09T06:54:05;9.80;;;6.20;;
33266;SDS011;19638;49.080;11.896;2023-05-09T06:58:10;7.80;;;5.78;;
33266;SDS011;19638;49.080;11.896;2023-05-09T07:02:13;8.45;;;6.18;;
33266;SDS011;19638;49.080;11.896;2023-05-09T07:06:17;7.47;;;5.07;;
33266;SDS011;19638;49.080;11.896;2023-05-09T07:10:20;8.27;;;5.65;;
33266;SDS011;19638;49.080;11.896;2023-05-09T07:14:25;9.30;;;5.70;;
33266;SDS011;19638;49.080;11.896;2023-05-09T07:18:28;11.93;;;5.97;;
33266;SDS011;19638;49.080;11.896;2023-05-09T07:22:31;10.07;;;5.63;;
33266;SDS011;19638;49.080;11.896;2023-05-09T07:26:37;6.55;;;5.03;;
33266;SDS011;19638;49.080;11.896;2023-05-09T07:30:41;7.57;;;4.63;;
33266;SDS011;19638;49.080;11.896;2023-05-09T07:34:45;7.28;;;5.00;;
33266;SDS011;19638;49.080;11.896;2023-05-09T07:38:51;10.32;;;4.72;;
33266;SDS011;19638;49.080;11.896;2023-05-09T07:42:54;7.03;;;4.50;;
33266;SDS011;19638;49.080;11.896;2023-05-09T07:47:03;6.97;;;4.15;;
33266;SDS011;19638;49.080;11.896;2023-05-09T07:51:09;5.18;;;4.68;;
33266;SDS011;19638;49.080;11.896;2023-05-09T07:55:12;5.18;;;4.60;;
33266;SDS011;19638;49.080;11.896;2023-05-09T07:59:16;9.10;;;4.45;;
33266;SDS011;19638;49.080;11.896;2023-05-09T08:03:21;5.28;;;4.00;;
33266;SDS011;19638;49.080;11.896;2023-05-09T08:07:24;4.82;;;4.32;;
33266;SDS011;19638;49.080;11.896;2023-05-09T08:11:27;5.72;;;4.30;;
33266;SDS011;19638;49.080;11.896;2023-05-09T08:15:30;4.20;;;3.85;;
33266;SDS011;19638;49.080;11.896;2023-05-09T08:19:35;4.40;;;3.90;;
33266;SDS011;19638;49.080;11.896;2023-05-09T08:23:38;4.25;;;3.85;;
33266;SDS011;19638;49.080;11.896;2023-05-09T08:27:42;4.65;;;3.65;;
33266;SDS011;19638;49.080;11.896;2023-05-09T08:31:47;6.57;;;4.57;;
33266;SDS011;19638;49.080;11.896;2023-05-09T08:36:03;4.07;;;3.78;;
33266;SDS011;19638;49.080;11.896;2023-05-09T08:40:12;8.75;;;4.47;;
33266;SDS011;19638;49.080;11.896;2023-05-09T08:44:19;6.47;;;4.05;;
33266;SDS011;19638;49.080;11.896;2023-05-09T08:48:26;4.85;;;4.20;;
33266;SDS011;19638;49.080;11.896;2023-05-09T08:52:31;7.05;;;4.45;;
33266;SDS011;19638;49.080;11.896;2023-05-09T08:56:40;8.00;;;4.70;;
33266;SDS011;19638;49.080;11.896;2023-05-09T09:00:44;5.68;;;5.18;;
33266;SDS011;19638;49.080;11.896;2023-05-09T09:04:49;8.38;;;5.30;;
33266;SDS011;19638;49.080;11.896;2023-05-09T09:08:54;4.63;;;4.22;;
33266;SDS011;19638;49.080;11.896;2023-05-09T09:12:58;9.82;;;4.60;;
33266;SDS011;19638;49.080;11.896;2023-05-09T09:17:07;6.25;;;4.53;;
33266;SDS011;19638;49.080;11.896;2023-05-09T09:21:17;13.43;;;4.38;;
33266;SDS011;19638;49.080;11.896;2023-05-09T09:25:23;4.28;;;3.88;;
33266;SDS011;19638;49.080;11.896;2023-05-09T09:29:26;4.80;;;3.97;;
33266;SDS011;19638;49.080;11.896;2023-05-09T09:33:32;8.52;;;4.43;;
33266;SDS011;19638;49.080;11.896;2023-05-09T09:37:38;5.30;;;3.63;;
33266;SDS011;19638;49.080;11.896;2023-05-09T09:41:46;5.10;;;4.28;;
33266;SDS011;19638;49.080;11.896;2023-05-09T09:45:52;4.65;;;4.25;;
33266;SDS011;19638;49.080;11.896;2023-05-09T09:49:59;4.40;;;4.00;;
33266;SDS011;19638;49.080;11.896;2023-05-09T09:54:13;4.68;;;4.22;;
33266;SDS011;19638;49.080;11.896;2023-05-09T09:58:19;5.38;;;3.45;;
33266;SDS011;19638;49.080;11.896;2023-05-09T10:02:25;4.20;;;3.90;;
33266;SDS011;19638;49.080;11.896;2023-05-09T10:06:28;5.47;;;4.05;;
33266;SDS011;19638;49.080;11.896;2023-05-09T10:10:32;6.15;;;4.30;;
33266;SDS011;19638;49.080;11.896;2023-05-09T10:14:41;7.32;;;4.00;;
33266;SDS011;19638;49.080;11.896;2023-05-09T10:18:48;4.80;;;4.30;;
33266;SDS011;19638;49.080;11.896;2023-05-09T10:22:54;11.43;;;4.43;;
33266;SDS011;19638;49.080;11.896;2023-05-09T10:27:00;7.20;;;4.00;;
33266;SDS011;19638;49.080;11.896;2023-05-09T10:31:13;7.90;;;3.85;;
33266;SDS011;19638;49.080;11.896;2023-05-09T10:35:23;5.72;;;3.88;;
33266;SDS011;19638;49.080;11.896;2023-05-09T10:39:30;5.43;;;3.88;;
33266;SDS011;19638;49.080;11.896;2023-05-09T10:43:34;5.22;;;3.58;;
33266;SDS011;19638;49.080;11.896;2023-05-09T10:47:39;3.50;;;3.17;;
33266;SDS011;19638;49.080;11.896;2023-05-09T10:51:54;7.53;;;3.88;;
33266;SDS011;19638;49.080;11.896;2023-05-09T10:55:58;8.75;;;3.75;;
33266;SDS011;19638;49.080;11.896;2023-05-09T11:00:05;5.30;;;3.58;;
33266;SDS011;19638;49.080;11.896;2023-05-09T11:04:15;5.90;;;3.88;;
33266;SDS011;19638;49.080;11.896;2023-05-09T11:08:22;4.72;;;3.42;;
33266;SDS011;19638;49.080;11.896;2023-05-09T11:12:27;4.38;;;3.97;;
33266;SDS011;19638;49.080;11.896;2023-05-09T11:16:30;7.70;;;4.45;;
33266;SDS011;19638;49.080;11.896;2023-05-09T11:20:34;6.93;;;4.95;;
33266;SDS011;19638;49.080;11.896;2023-05-09T11:24:44;5.70;;;4.72;;
33266;SDS011;19638;49.080;11.896;2023-05-09T11:28:54;4.63;;;4.18;;
33266;SDS011;19638;49.080;11.896;2023-05-09T11:33:01;17.65;;;4.70;;
33266;SDS011;19638;49.080;11.896;2023-05-09T11:37:09;9.07;;;4.15;;
33266;SDS011;19638;49.080;11.896;2023-05-09T11:41:17;9.35;;;4.60;;
33266;SDS011;19638;49.080;11.896;2023-05-09T11:45:20;7.10;;;4.80;;
33266;SDS011;19638;49.080;11.896;2023-05-09T11:49:37;7.45;;;4.95;;
33266;SDS011;19638;49.080;11.896;2023-05-09T11:53:44;5.10;;;4.40;;
33266;SDS011;19638;49.080;11.896;2023-05-09T11:57:49;10.80;;;4.03;;
33266;SDS011;19638;49.080;11.896;2023-05-09T12:01:52;5.68;;;4.15;;
33266;SDS011;19638;49.080;11.896;2023-05-09T12:05:56;4.85;;;4.45;;
33266;SDS011;19638;49.080;11.896;2023-05-09T12:10:05;4.63;;;4.22;;
33266;SDS011;19638;49.080;11.896;2023-05-09T12:14:09;4.35;;;3.95;;
33266;SDS011;19638;49.080;11.896;2023-05-09T12:18:14;4.68;;;4.22;;
33266;SDS011;19638;49.080;11.896;2023-05-09T12:22:20;9.70;;;5.15;;
33266;SDS011;19638;49.080;11.896;2023-05-09T12:26:24;4.65;;;3.80;;
33266;SDS011;19638;49.080;11.896;2023-05-09T12:30:30;6.85;;;4.35;;
33266;SDS011;19638;49.080;11.896;2023-05-09T12:34:34;7.55;;;5.45;;
33266;SDS011;19638;49.080;11.896;2023-05-09T12:38:37;10.63;;;5.53;;
33266;SDS011;19638;49.080;11.896;2023-05-09T12:42:43;6.20;;;5.05;;
33266;SDS011;19638;49.080;11.896;2023-05-09T12:46:56;7.60;;;4.82;;
33266;SDS011;19638;49.080;11.896;2023-05-09T12:51:01;5.78;;;4.20;;
33266;SDS011;19638;49.080;11.896;2023-05-09T12:55:08;5.68;;;4.80;;
33266;SDS011;19638;49.080;11.896;2023-05-09T12:59:14;6.00;;;4.22;;
33266;SDS011;19638;49.080;11.896;2023-05-09T13:03:22;6.13;;;4.63;;
33266;SDS011;19638;49.080;11.896;2023-05-09T13:07:27;6.13;;;4.32;;
33266;SDS011;19638;49.080;11.896;2023-05-09T13:11:30;7.30;;;5.25;;
33266;SDS011;19638;49.080;11.896;2023-05-09T13:15:35;7.88;;;5.57;;
33266;SDS011;19638;49.080;11.896;2023-05-09T13:19:39;8.35;;;5.07;;
33266;SDS011;19638;49.080;11.896;2023-05-09T13:23:42;6.03;;;5.13;;
33266;SDS011;19638;49.080;11.896;2023-05-09T13:27:52;5.88;;;4.88;;
33266;SDS011;19638;49.080;11.896;2023-05-09T13:31:59;7.60;;;5.25;;
33266;SDS011;19638;49.080;11.896;2023-05-09T13:36:04;8.80;;;4.88;;
33266;SDS011;19638;49.080;11.896;2023-05-09T13:40:10;10.88;;;6.32;;
33266;SDS011;19638;49.080;11.896;2023-05-09T13:44:14;10.63;;;5.90;;
33266;SDS011;19638;49.080;11.896;2023-05-09T13:48:19;5.50;;;5.00;;
33266;SDS011;19638;49.080;11.896;2023-05-09T13:52:24;13.60;;;5.05;;
33266;SDS011;19638;49.080;11.896;2023-05-09T13:56:30;5.68;;;5.03;;
33266;SDS011;19638;49.080;11.896;2023-05-09T14:00:33;5.22;;;4.80;;
33266;SDS011;19638;49.080;11.896;2023-05-09T14:04:38;4.70;;;4.13;;
33266;SDS011;19638;49.080;11.896;2023-05-09T14:08:46;5.30;;;4.57;;
33266;SDS011;19638;49.080;11.896;2023-05-09T14:12:50;6.43;;;5.00;;
33266;SDS011;19638;49.080;11.896;2023-05-09T14:16:53;5.70;;;4.85;;
33266;SDS011;19638;49.080;11.896;2023-05-09T14:21:00;10.32;;;5.22;;
33266;SDS011;19638;49.080;11.896;2023-05-09T14:25:10;5.10;;;4.60;;
33266;SDS011;19638;49.080;11.896;2023-05-09T14:29:14;8.43;;;4.55;;
33266;SDS011;19638;49.080;11.896;2023-05-09T14:33:18;4.18;;;3.50;;
33266;SDS011;19638;49.080;11.896;2023-05-09T14:37:22;5.28;;;4.55;;
33266;SDS011;19638;49.080;11.896;2023-05-09T14:41:25;5.30;;;4.20;;
33266;SDS011;19638;49.080;11.896;2023-05-09T14:45:29;5.78;;;4.68;;
33266;SDS011;19638;49.080;11.896;2023-05-09T14:49:35;4.75;;;4.13;;
33266;SDS011;19638;49.080;11.896;2023-05-09T14:53:44;6.10;;;3.75;;
33266;SDS011;19638;49.080;11.896;2023-05-09T14:57:50;3.78;;;3.47;;
33266;SDS011;19638;49.080;11.896;2023-05-09T15:01:54;3.75;;;2.97;;
33266;SDS011;19638;49.080;11.896;2023-05-09T15:05:58;4.18;;;3.10;;
33266;SDS011;19638;49.080;11.896;2023-05-09T15:10:03;10.63;;;3.50;;
33266;SDS011;19638;49.080;11.896;2023-05-09T15:14:07;3.38;;;3.08;;
33266;SDS011;19638;49.080;11.896;2023-05-09T15:18:12;3.83;;;3.08;;
33266;SDS011;19638;49.080;11.896;2023-05-09T15:22:18;7.95;;;3.00;;
33266;SDS011;19638;49.080;11.896;2023-05-09T15:26:23;2.80;;;2.58;;
33266;SDS011;19638;49.080;11.896;2023-05-09T15:30:30;3.15;;;2.85;;
33266;SDS011;19638;49.080;11.896;2023-05-09T15:34:33;2.90;;;2.63;;
33266;SDS011;19638;49.080;11.896;2023-05-09T15:38:36;5.57;;;3.05;;
33266;SDS011;19638;49.080;11.896;2023-05-09T15:42:41;3.15;;;2.95;;
33266;SDS011;19638;49.080;11.896;2023-05-09T15:46:44;3.80;;;2.80;;
33266;SDS011;19638;49.080;11.896;2023-05-09T15:50:48;4.20;;;2.72;;
33266;SDS011;19638;49.080;11.896;2023-05-09T15:54:58;3.78;;;2.80;;
33266;SDS011;19638;49.080;11.896;2023-05-09T15:59:03;5.22;;;2.50;;
33266;SDS011;19638;49.080;11.896;2023-05-09T16:03:06;5.80;;;2.83;;
33266;SDS011;19638;49.080;11.896;2023-05-09T16:07:09;4.63;;;3.00;;
33266;SDS011;19638;49.080;11.896;2023-05-09T16:11:14;7.65;;;3.22;;
33266;SDS011;19638;49.080;11.896;2023-05-09T16:15:18;3.25;;;2.38;;
33266;SDS011;19638;49.080;11.896;2023-05-09T16:19:24;6.68;;;2.78;;
33266;SDS011;19638;49.080;11.896;2023-05-09T16:23:27;3.72;;;2.63;;
33266;SDS011;19638;49.080;11.896;2023-05-09T16:27:34;3.00;;;2.75;;
33266;SDS011;19638;49.080;11.896;2023-05-09T16:31:40;3.28;;;2.97;;
33266;SDS011;19638;49.080;11.896;2023-05-09T16:35:45;4.13;;;3.00;;
33266;SDS011;19638;49.080;11.896;2023-05-09T16:39:49;14.43;;;3.03;;
33266;SDS011;19638;49.080;11.896;2023-05-09T16:43:54;7.80;;;3.50;;
33266;SDS011;19638;49.080;11.896;2023-05-09T16:48:02;3.40;;;2.78;;
33266;SDS011;19638;49.080;11.896;2023-05-09T16:52:08;7.35;;;3.38;;
33266;SDS011;19638;49.080;11.896;2023-05-09T16:56:11;3.25;;;2.95;;
33266;SDS011;19638;49.080;11.896;2023-05-09T17:00:17;3.95;;;2.90;;
33266;SDS011;19638;49.080;11.896;2023-05-09T17:04:22;4.13;;;2.88;;
33266;SDS011;19638;49.080;11.896;2023-05-09T17:08:29;6.72;;;2.60;;
33266;SDS011;19638;49.080;11.896;2023-05-09T17:12:32;3.28;;;2.83;;
33266;SDS011;19638;49.080;11.896;2023-05-09T17:16:37;3.28;;;2.97;;
33266;SDS011;19638;49.080;11.896;2023-05-09T17:20:42;6.57;;;3.35;;
33266;SDS011;19638;49.080;11.896;2023-05-09T17:24:45;3.38;;;3.08;;
33266;SDS011;19638;49.080;11.896;2023-05-09T17:28:50;5.22;;;3.53;;
33266;SDS011;19638;49.080;11.896;2023-05-09T17:32:53;3.95;;;3.55;;
33266;SDS011;19638;49.080;11.896;2023-05-09T17:37:00;4.65;;;3.35;;
33266;SDS011;19638;49.080;11.896;2023-05-09T17:41:05;7.68;;;4.80;;
33266;SDS011;19638;49.080;11.896;2023-05-09T17:45:09;10.70;;;6.80;;
33266;SDS011;19638;49.080;11.896;2023-05-09T17:49:14;9.32;;;5.75;;
33266;SDS011;19638;49.080;11.896;2023-05-09T17:53:21;40.30;;;17.00;;
33266;SDS011;19638;49.080;11.896;2023-05-09T17:57:26;29.40;;;12.57;;
33266;SDS011;19638;49.080;11.896;2023-05-09T18:01:30;29.55;;;11.95;;
33266;SDS011;19638;49.080;11.896;2023-05-09T18:05:35;19.90;;;8.38;;
33266;SDS011;19638;49.080;11.896;2023-05-09T18:09:41;30.63;;;10.88;;
33266;SDS011;19638;49.080;11.896;2023-05-09T18:13:47;47.55;;;13.98;;
33266;SDS011;19638;49.080;11.896;2023-05-09T18:17:51;9.93;;;3.85;;
33266;SDS011;19638;49.080;11.896;2023-05-09T18:21:58;13.05;;;8.02;;
33266;SDS011;19638;49.080;11.896;2023-05-09T18:26:03;5.97;;;3.58;;
33266;SDS011;19638;49.080;11.896;2023-05-09T18:30:06;6.63;;;3.58;;
33266;SDS011;19638;49.080;11.896;2023-05-09T18:34:12;7.20;;;3.75;;
33266;SDS011;19638;49.080;11.896;2023-05-09T18:38:15;5.53;;;4.07;;
33266;SDS011;19638;49.080;11.896;2023-05-09T18:42:22;6.05;;;3.95;;
33266;SDS011;19638;49.080;11.896;2023-05-09T18:46:25;6.00;;;3.88;;
33266;SDS011;19638;49.080;11.896;2023-05-09T18:50:33;3.97;;;3.30;;
33266;SDS011;19638;49.080;11.896;2023-05-09T18:54:36;5.32;;;3.78;;
33266;SDS011;19638;49.080;11.896;2023-05-09T18:58:43;6.30;;;4.20;;
33266;SDS011;19638;49.080;11.896;2023-05-09T19:02:46;7.65;;;3.55;;
33266;SDS011;19638;49.080;11.896;2023-05-09T19:06:49;8.13;;;3.83;;
33266;SDS011;19638;49.080;11.896;2023-05-09T19:10:54;6.38;;;3.65;;
33266;SDS011;19638;49.080;11.896;2023-05-09T19:14:58;6.03;;;3.80;;
33266;SDS011;19638;49.080;11.896;2023-05-09T19:19:04;5.65;;;3.67;;
33266;SDS011;19638;49.080;11.896;2023-05-09T19:23:07;3.58;;;3.28;;
33266;SDS011;19638;49.080;11.896;2023-05-09T19:27:16;8.70;;;3.75;;
33266;SDS011;19638;49.080;11.896;2023-05-09T19:31:26;5.60;;;3.90;;
33266;SDS011;19638;49.080;11.896;2023-05-09T19:35:29;4.85;;;3.88;;
33266;SDS011;19638;49.080;11.896;2023-05-09T19:39:32;5.78;;;4.00;;
33266;SDS011;19638;49.080;11.896;2023-05-09T19:43:35;4.85;;;4.13;;
33266;SDS011;19638;49.080;11.896;2023-05-09T19:52:22;5.55;;;3.92;;
33266;SDS011;19638;49.080;11.896;2023-05-09T19:56:26;5.97;;;4.13;;
33266;SDS011;19638;49.080;11.896;2023-05-09T20:00:29;10.55;;;3.97;;
33266;SDS011;19638;49.080;11.896;2023-05-09T20:04:34;6.43;;;3.58;;
33266;SDS011;19638;49.080;11.896;2023-05-09T20:08:44;7.43;;;4.00;;
33266;SDS011;19638;49.080;11.896;2023-05-09T20:12:52;5.82;;;4.13;;
33266;SDS011;19638;49.080;11.896;2023-05-09T20:16:59;8.52;;;3.85;;
33266;SDS011;19638;49.080;11.896;2023-05-09T20:21:05;4.30;;;3.90;;
33266;SDS011;19638;49.080;11.896;2023-05-09T20:25:13;4.15;;;3.75;;
33266;SDS011;19638;49.080;11.896;2023-05-09T20:29:16;5.43;;;3.92;;
33266;SDS011;19638;49.080;11.896;2023-05-09T20:33:19;6.00;;;4.40;;
33266;SDS011;19638;49.080;11.896;2023-05-09T20:37:23;8.90;;;4.50;;
33266;SDS011;19638;49.080;11.896;2023-05-09T20:41:26;5.53;;;4.20;;
33266;SDS011;19638;49.080;11.896;2023-05-09T20:45:30;5.63;;;4.00;;
33266;SDS011;19638;49.080;11.896;2023-05-09T20:49:33;5.10;;;4.35;;
33266;SDS011;19638;49.080;11.896;2023-05-09T20:53:41;8.85;;;4.85;;
33266;SDS011;19638;49.080;11.896;2023-05-09T20:57:44;7.55;;;4.63;;
33266;SDS011;19638;49.080;11.896;2023-05-09T21:01:51;6.65;;;3.80;;
33266;SDS011;19638;49.080;11.896;2023-05-09T21:05:56;5.63;;;3.80;;
33266;SDS011;19638;49.080;11.896;2023-05-09T21:10:16;10.85;;;5.57;;
33266;SDS011;19638;49.080;11.896;2023-05-09T21:14:19;4.80;;;3.67;;
33266;SDS011;19638;49.080;11.896;2023-05-09T21:18:28;6.15;;;3.58;;
33266;SDS011;19638;49.080;11.896;2023-05-09T21:22:31;7.68;;;3.80;;
33266;SDS011;19638;49.080;11.896;2023-05-09T21:26:36;5.47;;;3.67;;
33266;SDS011;19638;49.080;11.896;2023-05-09T21:30:48;4.95;;;3.88;;
33266;SDS011;19638;49.080;11.896;2023-05-09T21:34:54;6.55;;;3.80;;
33266;SDS011;19638;49.080;11.896;2023-05-09T21:39:02;4.00;;;3.60;;
33266;SDS011;19638;49.080;11.896;2023-05-09T21:43:13;6.47;;;3.58;;
33266;SDS011;19638;49.080;11.896;2023-05-09T21:47:18;9.57;;;3.70;;
33266;SDS011;19638;49.080;11.896;2023-05-09T21:51:22;5.80;;;3.67;;
33266;SDS011;19638;49.080;11.896;2023-05-09T21:55:27;6.15;;;3.53;;
33266;SDS011;19638;49.080;11.896;2023-05-09T21:59:32;4.50;;;3.60;;
33266;SDS011;19638;49.080;11.896;2023-05-09T22:03:38;7.53;;;3.63;;
33266;SDS011;19638;49.080;11.896;2023-05-09T22:07:41;4.85;;;3.35;;
33266;SDS011;19638;49.080;11.896;2023-05-09T22:11:44;9.32;;;3.90;;
33266;SDS011;19638;49.080;11.896;2023-05-09T22:15:50;6.20;;;3.20;;
33266;SDS011;19638;49.080;11.896;2023-05-09T22:19:58;5.97;;;3.10;;
33266;SDS011;19638;49.080;11.896;2023-05-09T22:24:01;6.30;;;3.80;;
33266;SDS011;19638;49.080;11.896;2023-05-09T22:28:07;5.38;;;3.30;;
33266;SDS011;19638;49.080;11.896;2023-05-09T22:32:12;3.50;;;3.20;;
33266;SDS011;19638;49.080;11.896;2023-05-09T22:36:21;6.50;;;3.67;;
33266;SDS011;19638;49.080;11.896;2023-05-09T22:40:24;3.65;;;3.17;;
33266;SDS011;19638;49.080;11.896;2023-05-09T22:44:30;4.45;;;3.58;;
33266;SDS011;19638;49.080;11.896;2023-05-09T22:48:38;4.50;;;3.58;;
33266;SDS011;19638;49.080;11.896;2023-05-09T22:52:41;6.15;;;3.50;;
33266;SDS011;19638;49.080;11.896;2023-05-09T22:56:44;4.93;;;3.40;;
33266;SDS011;19638;49.080;11.896;2023-05-09T23:00:47;4.20;;;3.67;;
33266;SDS011;19638;49.080;11.896;2023-05-09T23:04:55;6.18;;;3.42;;
33266;SDS011;19638;49.080;11.896;2023-05-09T23:08:58;3.50;;;3.20;;
33266;SDS011;19638;49.080;11.896;2023-05-09T23:13:03;4.68;;;3.50;;
33266;SDS011;19638;49.080;11.896;2023-05-09T23:17:06;7.20;;;3.80;;
33266;SDS011;19638;49.080;11.896;2023-05-09T23:21:12;5.00;;;3.13;;
33266;SDS011;19638;49.080;11.896;2023-05-09T23:25:17;3.88;;;3.58;;
33266;SDS011;19638;49.080;11.896;2023-05-09T23:29:21;3.60;;;3.10;;
33266;SDS011;19638;49.080;11.896;2023-05-09T23:33:24;5.68;;;3.40;;
33266;SDS011;19638;49.080;11.896;2023-05-09T23:37:32;3.92;;;3.33;;
33266;SDS011;19638;49.080;11.896;2023-05-09T23:41:38;4.15;;;3.40;;
33266;SDS011;19638;49.080;11.896;2023-05-09T23:45:41;3.85;;;3.50;;
33266;SDS011;19638;49.080;11.896;2023-05-09T23:49:45;9.50;;;3.63;;
33266;SDS011;19638;49.080;11.896;2023-05-09T23:53:50;4.00;;;3.60;;
33266;SDS011;19638;49.080;11.896;2023-05-09T23:57:55;5.00;;;3.30;;
